createdAt,value
2018-06-29T00:00:14.361Z,36.67
2018-06-29T00:02:45.349Z,36.57
2018-06-29T00:05:16.361Z,36.65
2018-06-29T00:07:48.766Z,36.92
2018-06-29T00:10:20.576Z,37.31
2018-06-29T00:12:50.015Z,36.97
2018-06-29T00:15:22.427Z,37.15
2018-06-29T00:17:51.857Z,37.23
2018-06-29T00:20:21.344Z,37.22
2018-06-29T00:22:50.784Z,37.58
2018-06-29T00:25:23.172Z,37.86
2018-06-29T00:27:52.614Z,38.00
2018-06-29T00:30:24.418Z,38.25
2018-06-29T00:32:56.856Z,37.96
2018-06-29T00:35:26.321Z,38.09
2018-06-29T00:37:58.725Z,38.03
2018-06-29T00:40:28.929Z,38.35
2018-06-29T00:43:01.351Z,38.33
2018-06-29T00:45:33.805Z,38.38
2018-06-29T00:48:04.848Z,38.58
2018-06-29T00:50:35.072Z,38.97
2018-06-29T00:53:04.537Z,38.97
2018-06-29T00:55:36.972Z,38.93
2018-06-29T00:58:06.450Z,38.98
2018-06-29T01:00:38.868Z,38.94
2018-06-29T01:03:08.372Z,38.87
2018-06-29T01:05:38.613Z,39.04
2018-06-29T01:08:11.078Z,39.01
2018-06-29T01:10:40.521Z,39.07
2018-06-29T01:13:12.950Z,39.23
2018-06-29T01:15:42.431Z,39.29
2018-06-29T01:18:14.204Z,39.31
2018-06-29T01:20:46.620Z,39.43
2018-06-29T01:23:19.010Z,39.19
2018-06-29T01:25:50.848Z,39.42
2018-06-29T01:28:23.312Z,39.35
2018-06-29T01:30:52.755Z,39.48
2018-06-29T01:33:25.196Z,39.76
2018-06-29T01:35:54.629Z,39.66
2018-06-29T01:38:24.942Z,40.00
2018-06-29T01:40:54.501Z,40.07
2018-06-29T01:43:24.763Z,39.92
2018-06-29T01:45:54.189Z,39.93
2018-06-29T01:48:22.903Z,39.97
2018-06-29T01:50:52.349Z,40.11
2018-06-29T01:53:24.749Z,40.23
2018-06-29T01:55:54.982Z,40.23
2018-06-29T01:58:24.437Z,39.92
2018-06-29T02:00:53.893Z,40.19
2018-06-29T02:03:26.273Z,40.34
2018-06-29T02:05:58.657Z,40.44
2018-06-29T02:08:28.289Z,40.57
2018-06-29T02:11:00.683Z,40.56
2018-06-29T02:13:30.953Z,40.64
2018-06-29T02:16:02.856Z,40.80
2018-06-29T02:18:32.304Z,40.63
2018-06-29T02:21:02.550Z,40.71
2018-06-29T02:23:31.979Z,41.22
2018-06-29T02:26:02.981Z,40.84
2018-06-29T02:28:35.488Z,41.83
2018-06-29T02:31:05.720Z,41.68
2018-06-29T02:33:35.953Z,42.16
2018-06-29T02:36:05.458Z,41.57
2018-06-29T02:38:37.826Z,41.62
2018-06-29T02:41:07.300Z,41.67
2018-06-29T02:43:36.754Z,41.87
2018-06-29T02:46:06.229Z,41.93
2018-06-29T02:48:35.697Z,41.55
2018-06-29T02:51:05.133Z,41.60
2018-06-29T02:53:37.514Z,41.89
2018-06-29T02:56:07.054Z,41.38
2018-06-29T02:58:39.445Z,41.53
2018-06-29T03:01:12.141Z,41.72
2018-06-29T03:03:41.639Z,41.86
2018-06-29T03:06:14.096Z,41.80
2018-06-29T03:08:43.571Z,41.92
2018-06-29T03:11:13.025Z,41.54
2018-06-29T03:13:43.260Z,41.75
2018-06-29T03:16:15.221Z,41.69
2018-06-29T03:18:46.213Z,42.44
2018-06-29T03:21:15.669Z,42.24
2018-06-29T03:23:48.064Z,42.19
2018-06-29T03:26:19.192Z,41.99
2018-06-29T03:28:51.964Z,42.42
2018-06-29T03:31:24.432Z,42.50
2018-06-29T03:33:55.479Z,43.11
2018-06-29T03:36:26.476Z,42.41
2018-06-29T03:38:55.936Z,42.74
2018-06-29T03:41:25.431Z,42.90
2018-06-29T03:43:54.869Z,42.76
2018-06-29T03:46:24.373Z,43.38
2018-06-29T03:48:53.881Z,43.25
2018-06-29T03:51:38.476Z,43.70
2018-06-29T03:54:07.908Z,43.51
2018-06-29T03:56:40.331Z,43.03
2018-06-29T03:59:12.715Z,43.56
2018-06-29T04:01:42.164Z,43.73
2018-06-29T04:04:14.612Z,43.63
2018-06-29T04:06:44.038Z,43.57
2018-06-29T04:09:16.460Z,44.07
2018-06-29T04:11:48.872Z,43.57
2018-06-29T04:14:18.404Z,43.43
2018-06-29T04:16:50.913Z,43.33
2018-06-29T04:19:21.494Z,44.03
2018-06-29T04:21:50.943Z,43.92
2018-06-29T04:24:22.215Z,43.91
2018-06-29T04:26:53.972Z,44.08
2018-06-29T04:29:26.477Z,43.69
2018-06-29T04:31:55.932Z,43.79
2018-06-29T04:34:28.352Z,44.04
2018-06-29T04:36:57.827Z,43.70
2018-06-29T04:39:30.211Z,43.79
2018-06-29T04:42:02.673Z,43.77
2018-06-29T04:44:32.192Z,43.60
2018-06-29T04:47:02.570Z,43.71
2018-06-29T04:49:32.019Z,43.84
2018-06-29T04:52:02.370Z,43.85
2018-06-29T04:54:31.809Z,43.82
2018-06-29T04:57:04.226Z,43.88
2018-06-29T04:59:33.688Z,44.01
2018-06-29T05:02:06.145Z,44.04
2018-06-29T05:04:38.557Z,43.83
2018-06-29T05:07:10.940Z,44.25
2018-06-29T05:09:42.752Z,43.94
2018-06-29T05:12:12.198Z,44.44
2018-06-29T05:14:41.867Z,44.02
2018-06-29T05:17:12.103Z,43.91
2018-06-29T05:19:42.332Z,44.29
2018-06-29T05:22:14.125Z,43.95
2018-06-29T05:24:43.580Z,44.09
2018-06-29T05:27:13.854Z,43.92
2018-06-29T05:29:43.329Z,43.82
2018-06-29T05:32:12.817Z,43.90
2018-06-29T05:34:43.034Z,43.77
2018-06-29T05:37:14.856Z,43.81
2018-06-29T05:39:44.329Z,43.79
2018-06-29T05:42:16.731Z,44.02
2018-06-29T05:44:49.141Z,44.04
2018-06-29T05:47:19.428Z,44.08
2018-06-29T05:49:51.796Z,44.25
2018-06-29T05:52:22.051Z,44.43
2018-06-29T05:54:53.048Z,43.99
2018-06-29T05:57:22.565Z,43.86
2018-06-29T05:59:54.286Z,44.02
2018-06-29T06:02:26.989Z,43.44
2018-06-29T06:04:56.448Z,43.90
2018-06-29T06:07:29.018Z,44.49
2018-06-29T06:09:58.470Z,44.61
2018-06-29T06:12:30.904Z,43.80
2018-06-29T06:15:02.702Z,43.90
2018-06-29T06:17:32.913Z,43.76
2018-06-29T06:20:07.420Z,43.49
2018-06-29T06:22:39.792Z,43.49
2018-06-29T06:25:10.041Z,43.60
2018-06-29T06:27:41.033Z,43.50
2018-06-29T06:30:10.513Z,43.24
2018-06-29T06:32:42.924Z,43.56
2018-06-29T06:35:15.345Z,43.23
2018-06-29T06:37:47.787Z,43.07
2018-06-29T06:40:20.184Z,43.09
2018-06-29T06:42:52.560Z,43.03
2018-06-29T06:45:22.872Z,43.37
2018-06-29T06:47:53.841Z,43.39
2018-06-29T06:50:23.346Z,43.42
2018-06-29T06:52:53.829Z,43.53
2018-06-29T06:55:24.040Z,43.41
2018-06-29T06:57:56.462Z,43.26
2018-06-29T07:00:28.636Z,43.12
2018-06-29T07:02:58.989Z,42.88
2018-06-29T07:05:29.974Z,42.88
2018-06-29T07:07:59.420Z,42.40
2018-06-29T07:10:28.903Z,42.40
2018-06-29T07:12:59.919Z,42.01
2018-06-29T07:15:30.969Z,41.79
2018-06-29T07:18:00.434Z,41.55
2018-06-29T07:20:29.909Z,41.46
2018-06-29T07:23:00.150Z,41.52
2018-06-29T07:25:30.650Z,41.24
2018-06-29T07:28:00.872Z,41.17
2018-06-29T07:30:31.872Z,41.09
2018-06-29T07:33:02.167Z,40.51
2018-06-29T07:35:31.688Z,40.20
2018-06-29T07:38:02.130Z,40.54
2018-06-29T07:40:31.585Z,40.45
2018-06-29T07:43:03.996Z,40.11
2018-06-29T07:45:34.224Z,40.16
2018-06-29T07:48:06.014Z,39.95
2018-06-29T07:50:37.352Z,39.90
2018-06-29T07:53:06.786Z,39.84
2018-06-29T07:55:39.624Z,39.96
2018-06-29T07:58:09.811Z,39.86
2018-06-29T08:00:42.236Z,39.83
2018-06-29T08:03:11.659Z,39.71
2018-06-29T08:05:44.124Z,39.42
2018-06-29T08:08:14.226Z,39.33
2018-06-29T08:10:44.533Z,39.29
2018-06-29T08:13:19.086Z,39.00
2018-06-29T08:15:48.527Z,39.11
2018-06-29T08:18:19.532Z,38.55
2018-06-29T08:20:49.045Z,38.33
2018-06-29T08:23:18.491Z,38.31
2018-06-29T08:25:47.941Z,38.18
2018-06-29T08:28:18.200Z,37.96
2018-06-29T08:30:47.628Z,37.60
2018-06-29T08:33:18.177Z,37.15
2018-06-29T08:35:47.711Z,37.05
2018-06-29T08:38:17.271Z,37.10
2018-06-29T08:40:47.543Z,36.91
2018-06-29T08:43:19.977Z,36.68
2018-06-29T08:45:52.367Z,36.27
2018-06-29T08:48:25.439Z,36.17
2018-06-29T08:50:56.416Z,35.94
2018-06-29T08:53:25.913Z,36.21
2018-06-29T08:55:58.311Z,36.17
2018-06-29T08:58:27.765Z,35.25
2018-06-29T09:00:58.780Z,34.73
2018-06-29T09:03:29.836Z,34.07
2018-06-29T09:05:59.282Z,34.48
2018-06-29T09:08:28.780Z,33.93
2018-06-29T09:10:58.308Z,33.77
2018-06-29T09:13:30.648Z,33.77
2018-06-29T09:16:00.124Z,33.78
2018-06-29T09:18:29.568Z,34.18
2018-06-29T09:20:59.012Z,33.98
2018-06-29T09:23:31.476Z,32.75
2018-06-29T09:26:00.928Z,32.96
2018-06-29T09:28:30.388Z,33.01
2018-06-29T09:30:59.838Z,32.71
2018-06-29T09:33:29.288Z,32.40
2018-06-29T09:35:58.749Z,32.49
2018-06-29T09:38:28.237Z,32.42
2018-06-29T09:40:57.685Z,32.99
2018-06-29T09:43:27.713Z,33.48
2018-06-29T09:45:57.801Z,33.59
2018-06-29T09:48:28.045Z,33.47
2018-06-29T09:50:58.241Z,32.99
2018-06-29T09:53:29.880Z,32.36
2018-06-29T09:56:00.211Z,32.41
2018-06-29T09:58:32.684Z,32.11
2018-06-29T10:01:04.770Z,31.47
2018-06-29T10:03:35.801Z,32.51
2018-06-29T10:06:08.248Z,32.98
2018-06-29T10:08:39.000Z,33.15
2018-06-29T10:11:08.517Z,32.93
2018-06-29T10:13:41.509Z,33.79
2018-06-29T10:16:11.035Z,33.11
2018-06-29T10:18:40.480Z,33.16
2018-06-29T10:21:09.929Z,32.84
2018-06-29T10:23:42.315Z,32.77
2018-06-29T10:26:14.122Z,33.08
2018-06-29T10:28:43.589Z,33.56
2018-06-29T10:31:16.024Z,33.08
2018-06-29T10:33:45.497Z,32.98
2018-06-29T10:36:15.781Z,32.97
2018-06-29T10:38:45.313Z,32.90
2018-06-29T10:41:14.701Z,33.28
2018-06-29T10:43:44.161Z,32.78
2018-06-29T10:46:13.611Z,32.96
2018-06-29T10:48:44.664Z,33.07
2018-06-29T10:51:17.043Z,32.31
2018-06-29T10:53:47.280Z,32.64
2018-06-29T10:56:18.615Z,32.24
2018-06-29T10:58:48.094Z,32.48
2018-06-29T11:01:17.533Z,32.39
2018-06-29T11:03:47.960Z,32.67
2018-06-29T11:06:20.444Z,32.13
2018-06-29T11:08:49.912Z,33.34
2018-06-29T11:11:19.407Z,32.65
2018-06-29T11:13:48.833Z,32.68
2018-06-29T11:16:18.284Z,31.71
2018-06-29T11:18:48.604Z,32.03
2018-06-29T11:21:18.074Z,32.36
2018-06-29T11:23:51.408Z,32.64
2018-06-29T11:26:20.946Z,32.02
2018-06-29T11:28:53.332Z,32.01
2018-06-29T11:31:22.780Z,30.96
2018-06-29T11:33:55.204Z,31.05
2018-06-29T11:36:25.421Z,31.57
2018-06-29T11:38:58.000Z,32.05
2018-06-29T11:41:30.395Z,31.63
2018-06-29T11:44:01.487Z,31.07
2018-06-29T11:46:33.904Z,31.44
2018-06-29T11:49:06.385Z,31.58
2018-06-29T11:51:35.829Z,31.88
2018-06-29T11:54:06.113Z,31.61
2018-06-29T11:56:35.737Z,31.05
2018-06-29T11:59:05.987Z,31.19
2018-06-29T12:01:35.403Z,31.30
2018-06-29T12:04:04.976Z,30.77
2018-06-29T12:06:34.476Z,31.31
2018-06-29T12:09:05.210Z,30.87
2018-06-29T12:11:34.640Z,29.94
2018-06-29T12:14:04.864Z,30.41
2018-06-29T12:16:34.348Z,31.01
2018-06-29T12:19:05.823Z,30.82
2018-06-29T12:21:36.261Z,30.81
2018-06-29T12:24:05.671Z,30.30
2018-06-29T12:26:35.147Z,30.05
2018-06-29T12:29:04.768Z,30.39
2018-06-29T12:31:34.265Z,30.36
2018-06-29T12:34:04.451Z,30.38
2018-06-29T12:36:33.933Z,29.35
2018-06-29T12:39:04.800Z,29.60
2018-06-29T12:41:34.772Z,30.12
2018-06-29T12:44:04.700Z,29.54
2018-06-29T12:46:34.160Z,29.96
2018-06-29T12:49:05.184Z,29.83
2018-06-29T12:51:34.659Z,29.49
2018-06-29T12:54:07.117Z,29.07
2018-06-29T12:56:39.621Z,29.21
2018-06-29T12:59:11.405Z,29.86
2018-06-29T13:01:41.624Z,29.44
2018-06-29T13:04:11.310Z,28.82
2018-06-29T13:06:40.596Z,28.48
2018-06-29T13:09:10.064Z,29.31
2018-06-29T13:11:39.506Z,28.46
2018-06-29T13:14:09.003Z,29.40
2018-06-29T13:16:41.329Z,28.70
2018-06-29T13:19:10.804Z,27.99
2018-06-29T13:21:40.260Z,27.51
2018-06-29T13:24:09.710Z,27.86
2018-06-29T13:26:40.233Z,27.21
2018-06-29T13:29:09.697Z,27.56
2018-06-29T13:31:39.148Z,27.44
2018-06-29T13:34:08.646Z,27.75
2018-06-29T13:36:38.132Z,26.41
2018-06-29T13:39:07.575Z,27.60
2018-06-29T13:41:37.018Z,27.93
2018-06-29T13:44:06.522Z,27.52
2018-06-29T13:46:35.956Z,27.87
2018-06-29T13:49:05.387Z,27.87
2018-06-29T13:51:34.824Z,27.16
2018-06-29T13:54:07.252Z,26.64
2018-06-29T13:56:36.680Z,25.90
2018-06-29T13:59:06.224Z,26.77
2018-06-29T14:01:35.862Z,27.28
2018-06-29T14:04:06.156Z,27.39
2018-06-29T14:06:35.683Z,27.47
2018-06-29T14:09:05.130Z,26.52
2018-06-29T14:11:35.242Z,26.59
2018-06-29T14:14:07.709Z,26.66
2018-06-29T14:16:39.468Z,26.17
2018-06-29T14:19:09.101Z,25.91
2018-06-29T14:21:41.529Z,26.16
2018-06-29T14:24:10.998Z,26.94
2018-06-29T14:26:43.444Z,26.43
2018-06-29T14:29:13.675Z,26.68
2018-06-29T14:31:43.138Z,26.44
2018-06-29T14:34:12.589Z,26.63
2018-06-29T14:36:43.580Z,26.16
2018-06-29T14:39:14.637Z,27.62
2018-06-29T14:41:44.091Z,28.71
2018-06-29T14:44:16.478Z,28.46
2018-06-29T14:46:48.255Z,28.35
2018-06-29T14:49:19.432Z,27.88
2018-06-29T14:51:51.844Z,27.06
2018-06-29T14:54:24.264Z,26.86
2018-06-29T14:56:55.272Z,26.92
2018-06-29T14:59:29.871Z,27.44
2018-06-29T15:02:00.870Z,27.64
2018-06-29T15:04:30.324Z,26.81
2018-06-29T15:06:59.796Z,26.64
2018-06-29T15:09:29.279Z,27.06
2018-06-29T15:12:00.237Z,26.41
2018-06-29T15:14:32.696Z,26.01
2018-06-29T15:17:05.152Z,26.11
2018-06-29T15:19:37.640Z,26.61
2018-06-29T15:22:07.856Z,26.36
2018-06-29T15:24:40.332Z,26.37
2018-06-29T15:27:10.758Z,25.83
2018-06-29T15:29:43.177Z,26.29
2018-06-29T15:32:12.629Z,27.34
2018-06-29T15:34:42.868Z,26.58
2018-06-29T15:37:15.245Z,26.73
2018-06-29T15:39:47.673Z,26.22
2018-06-29T15:42:20.110Z,26.10
2018-06-29T15:44:52.759Z,27.28
2018-06-29T15:47:22.245Z,27.15
2018-06-29T15:49:51.681Z,27.24
2018-06-29T15:52:21.920Z,26.29
2018-06-29T15:54:54.316Z,26.52
2018-06-29T15:57:24.402Z,26.12
2018-06-29T15:59:55.422Z,26.08
2018-06-29T16:02:27.833Z,25.86
2018-06-29T16:04:58.076Z,25.84
2018-06-29T16:07:31.932Z,26.38
2018-06-29T16:10:01.425Z,26.59
2018-06-29T16:12:33.233Z,26.01
2018-06-29T16:15:05.658Z,26.01
2018-06-29T16:17:35.114Z,26.21
2018-06-29T16:20:07.529Z,26.66
2018-06-29T16:22:37.854Z,26.87
2018-06-29T16:25:08.101Z,26.84
2018-06-29T16:27:40.529Z,27.06
2018-06-29T16:30:12.970Z,26.79
2018-06-29T16:32:45.390Z,26.58
2018-06-29T16:35:17.772Z,26.36
2018-06-29T16:37:47.358Z,26.63
2018-06-29T16:40:19.816Z,26.24
2018-06-29T16:42:49.279Z,25.89
2018-06-29T16:45:22.678Z,26.21
2018-06-29T16:47:56.665Z,26.51
2018-06-29T16:50:29.191Z,25.72
2018-06-29T16:52:59.619Z,25.92
2018-06-29T16:55:32.091Z,25.84
2018-06-29T16:58:02.410Z,27.17
2018-06-29T17:00:34.991Z,27.30
2018-06-29T17:03:07.466Z,27.28
2018-06-29T17:05:37.711Z,26.14
2018-06-29T17:08:10.162Z,27.67
2018-06-29T17:10:42.593Z,27.21
2018-06-29T17:13:12.069Z,27.30
2018-06-29T17:15:45.057Z,28.04
2018-06-29T17:18:16.210Z,26.45
2018-06-29T17:20:48.766Z,26.44
2018-06-29T17:23:21.190Z,27.14
2018-06-29T17:25:53.689Z,26.64
2018-06-29T17:28:26.789Z,26.74
2018-06-29T17:30:59.381Z,26.62
2018-06-29T17:33:32.414Z,27.17
2018-06-29T17:36:01.457Z,27.28
2018-06-29T17:38:34.844Z,27.39
2018-06-29T17:41:04.438Z,27.44
2018-06-29T17:43:36.985Z,27.72
2018-06-29T17:46:09.540Z,27.67
2018-06-29T17:48:39.060Z,27.47
2018-06-29T17:51:11.455Z,27.30
2018-06-29T17:53:42.540Z,26.68
2018-06-29T17:56:12.010Z,28.01
2018-06-29T17:58:47.412Z,27.70
2018-06-29T18:01:20.812Z,26.09
2018-06-29T18:03:53.295Z,27.47
2018-06-29T18:06:25.970Z,27.58
2018-06-29T18:08:55.565Z,28.59
2018-06-29T18:11:28.228Z,27.11
2018-06-29T18:13:58.216Z,26.34
2018-06-29T18:16:27.778Z,26.26
2018-06-29T18:18:57.770Z,25.76
2018-06-29T18:21:27.982Z,25.89
2018-06-29T18:23:57.485Z,26.28
2018-06-29T18:26:28.541Z,25.66
2018-06-29T18:29:01.161Z,25.77
2018-06-29T18:31:31.667Z,25.87
2018-06-29T18:34:02.751Z,25.83
2018-06-29T18:36:35.174Z,25.82
2018-06-29T18:39:05.310Z,25.76
2018-06-29T18:41:36.838Z,25.99
2018-06-29T18:44:07.851Z,25.86
2018-06-29T18:46:38.109Z,26.10
2018-06-29T18:49:10.517Z,25.83
2018-06-29T18:51:39.980Z,25.87
2018-06-29T18:54:12.440Z,26.02
2018-06-29T18:56:44.849Z,25.96
2018-06-29T18:59:17.401Z,25.99
2018-06-29T19:01:49.905Z,26.15
2018-06-29T19:04:23.481Z,26.01
2018-06-29T19:06:53.060Z,25.90
2018-06-29T19:09:25.480Z,25.91
2018-06-29T19:11:57.038Z,26.09
2018-06-29T19:14:27.300Z,26.06
2018-06-29T19:16:59.843Z,26.32
2018-06-29T19:19:29.387Z,26.16
2018-06-29T19:22:01.829Z,26.12
2018-06-29T19:24:31.648Z,26.16
2018-06-29T19:27:02.678Z,26.40
2018-06-29T19:29:35.055Z,26.43
2018-06-29T19:32:05.430Z,26.45
2018-06-29T19:34:37.853Z,26.52
2018-06-29T19:37:09.695Z,26.50
2018-06-29T19:39:42.084Z,26.44
2018-06-29T19:42:14.525Z,26.62
2018-06-29T19:44:45.049Z,26.56
2018-06-29T19:47:15.496Z,26.65
2018-06-29T19:49:45.005Z,26.82
2018-06-29T19:52:15.276Z,26.92
2018-06-29T19:54:44.840Z,26.78
2018-06-29T19:57:15.202Z,27.14
2018-06-29T19:59:47.620Z,27.42
2018-06-29T20:02:17.861Z,27.61
2018-06-29T20:04:50.377Z,27.60
2018-06-29T20:07:19.776Z,27.75
2018-06-29T20:09:51.571Z,28.05
2018-06-29T20:12:23.994Z,28.03
2018-06-29T20:14:53.447Z,28.35
2018-06-29T20:17:25.878Z,28.57
2018-06-29T20:19:55.348Z,28.89
2018-06-29T20:22:27.803Z,29.12
2018-06-29T20:24:57.372Z,29.47
2018-06-29T20:27:27.788Z,29.69
2018-06-29T20:30:00.192Z,30.04
2018-06-29T20:32:30.449Z,30.58
2018-06-29T20:35:03.018Z,30.87
2018-06-29T20:37:32.624Z,31.14
2018-06-29T20:40:05.050Z,31.19
2018-06-29T20:42:37.493Z,31.68
2018-06-29T20:45:10.048Z,31.66
2018-06-29T20:47:39.492Z,31.86
2018-06-29T20:50:11.973Z,32.02
2018-06-29T20:52:41.472Z,32.26
2018-06-29T20:55:10.932Z,32.43
2018-06-29T20:57:41.182Z,32.53
2018-06-29T21:00:14.283Z,32.80
2018-06-29T21:02:46.814Z,32.94
2018-06-29T21:05:19.241Z,33.30
2018-06-29T21:07:51.737Z,33.42
2018-06-29T21:10:21.227Z,33.64
2018-06-29T21:12:53.050Z,33.75
2018-06-29T21:15:25.491Z,34.22
2018-06-29T21:17:55.214Z,34.26
2018-06-29T21:20:27.553Z,34.46
2018-06-29T21:22:57.074Z,34.44
2018-06-29T21:25:30.279Z,34.86
2018-06-29T21:28:01.090Z,34.75
2018-06-29T21:30:31.756Z,35.03
2018-06-29T21:33:01.487Z,35.18
2018-06-29T21:35:30.933Z,35.23
2018-06-29T21:38:00.624Z,35.42
2018-06-29T21:40:30.105Z,35.52
2018-06-29T21:43:02.509Z,35.65
2018-06-29T21:45:31.976Z,35.67
2018-06-29T21:48:05.023Z,36.01
2018-06-29T21:50:35.327Z,36.24
2018-06-29T21:53:05.559Z,36.43
2018-06-29T21:55:37.945Z,38.17
2018-06-29T21:58:09.767Z,38.43
2018-06-29T22:00:41.160Z,38.97
2018-06-29T22:03:13.576Z,38.15
2018-06-29T22:05:43.842Z,38.77
2018-06-29T22:08:16.401Z,38.69
2018-06-29T22:10:45.843Z,38.36
2018-06-29T22:13:18.280Z,38.40
2018-06-29T22:15:47.731Z,38.22
2018-06-29T22:18:18.190Z,38.92
2018-06-29T22:20:50.795Z,38.73
2018-06-29T22:23:20.413Z,38.67
2018-06-29T22:25:52.819Z,38.91
2018-06-29T22:28:22.273Z,39.10
2018-06-29T22:30:54.670Z,38.71
2018-06-29T22:33:24.294Z,38.98
2018-06-29T22:35:55.348Z,38.92
2018-06-29T22:38:27.804Z,38.94
2018-06-29T22:40:57.313Z,39.15
2018-06-29T22:43:29.798Z,38.92
2018-06-29T22:45:59.253Z,39.60
2018-06-29T22:48:29.617Z,37.34
2018-06-29T22:50:59.641Z,37.67
2018-06-29T22:53:30.613Z,38.35
2018-06-29T22:56:00.069Z,38.66
2018-06-29T22:58:29.615Z,38.83
2018-06-29T23:01:02.006Z,38.82
2018-06-29T23:03:52.472Z,38.97
2018-06-29T23:06:24.253Z,39.33
2018-06-29T23:08:56.701Z,39.30
2018-06-29T23:11:26.949Z,39.20
2018-06-29T23:13:57.961Z,39.94
2018-06-29T23:16:30.362Z,39.45
2018-06-29T23:19:00.596Z,39.44
2018-06-29T23:21:31.592Z,39.43
2018-06-29T23:24:01.068Z,39.88
2018-06-29T23:26:33.519Z,39.84
2018-06-29T23:29:05.926Z,39.86
2018-06-29T23:31:35.355Z,40.04
2018-06-29T23:34:07.753Z,39.99
2018-06-29T23:36:40.972Z,40.24
2018-06-29T23:39:12.773Z,40.08
2018-06-29T23:41:45.180Z,39.97
2018-06-29T23:44:17.576Z,40.06
2018-06-29T23:46:50.657Z,40.06
2018-06-29T23:49:23.041Z,41.72
2018-06-29T23:51:52.546Z,41.34
2018-06-29T23:54:22.754Z,41.43
2018-06-29T23:56:55.196Z,40.61
2018-06-29T23:59:25.460Z,40.17
